sensor_id;sensor_type;location;lat;lon;timestamp;pressure;altitude;pressure_sealevel;temperature;humidity
68948;BME280;55996;49.546;7.400;2022-12-07T00:03:35;98883.50;;;5.37;100.00
68948;BME280;55996;49.546;7.400;2022-12-07T00:06:02;98888.56;;;5.52;100.00
68948;BME280;55996;49.546;7.400;2022-12-07T00:08:28;98879.03;;;5.56;100.00
68948;BME280;55996;49.546;7.400;2022-12-07T00:10:54;98873.78;;;5.62;100.00
68948;BME280;55996;49.546;7.400;2022-12-07T00:13:20;98877.97;;;5.72;100.00
68948;BME280;55996;49.546;7.400;2022-12-07T00:15:45;98870.31;;;5.60;100.00
68948;BME280;55996;49.546;7.400;2022-12-07T00:18:11;98864.38;;;5.47;100.00
68948;BME280;55996;49.546;7.400;2022-12-07T00:20:36;98864.44;;;5.41;100.00
68948;BME280;55996;49.546;7.400;2022-12-07T00:23:02;98863.63;;;5.39;100.00
68948;BME280;55996;49.546;7.400;2022-12-07T00:25:27;98865.25;;;5.47;100.00
68948;BME280;55996;49.546;7.400;2022-12-07T00:27:53;98857.47;;;5.49;100.00
68948;BME280;55996;49.546;7.400;2022-12-07T00:30:21;98861.88;;;5.39;100.00
68948;BME280;55996;49.546;7.400;2022-12-07T00:32:47;98862.06;;;5.17;100.00
68948;BME280;55996;49.546;7.400;2022-12-07T00:35:13;98866.38;;;5.20;100.00
68948;BME280;55996;49.546;7.400;2022-12-07T00:37:38;98845.59;;;5.23;100.00
68948;BME280;55996;49.546;7.400;2022-12-07T00:40:04;98853.25;;;5.37;100.00
68948;BME280;55996;49.546;7.400;2022-12-07T00:42:30;98845.63;;;5.22;100.00
68948;BME280;55996;49.546;7.400;2022-12-07T00:44:55;98855.09;;;5.24;100.00
68948;BME280;55996;49.546;7.400;2022-12-07T00:47:21;98852.56;;;5.18;100.00
68948;BME280;55996;49.546;7.400;2022-12-07T00:49:46;98846.44;;;5.25;100.00
68948;BME280;55996;49.546;7.400;2022-12-07T00:52:12;98844.72;;;5.27;100.00
68948;BME280;55996;49.546;7.400;2022-12-07T00:54:37;98843.88;;;5.21;100.00
68948;BME280;55996;49.546;7.400;2022-12-07T00:57:03;98845.66;;;5.15;100.00
68948;BME280;55996;49.546;7.400;2022-12-07T00:59:29;98819.78;;;5.14;100.00
68948;BME280;55996;49.546;7.400;2022-12-07T01:01:55;98832.75;;;5.11;100.00
68948;BME280;55996;49.546;7.400;2022-12-07T01:04:20;98837.84;;;5.20;100.00
68948;BME280;55996;49.546;7.400;2022-12-07T01:06:45;98831.75;;;5.24;100.00
68948;BME280;55996;49.546;7.400;2022-12-07T01:09:11;98834.38;;;5.20;100.00
68948;BME280;55996;49.546;7.400;2022-12-07T01:11:36;98830.03;;;5.23;100.00
68948;BME280;55996;49.546;7.400;2022-12-07T01:14:02;98833.56;;;5.17;100.00
68948;BME280;55996;49.546;7.400;2022-12-07T01:16:29;98839.72;;;5.04;100.00
68948;BME280;55996;49.546;7.400;2022-12-07T01:18:56;98856.16;;;5.01;100.00
68948;BME280;55996;49.546;7.400;2022-12-07T01:21:24;98850.03;;;5.07;100.00
68948;BME280;55996;49.546;7.400;2022-12-07T01:23:51;98850.03;;;5.10;100.00
68948;BME280;55996;49.546;7.400;2022-12-07T01:26:19;98847.31;;;5.24;100.00
68948;BME280;55996;49.546;7.400;2022-12-07T01:28:45;98849.09;;;5.22;100.00
68948;BME280;55996;49.546;7.400;2022-12-07T01:31:12;98847.38;;;5.18;100.00
68948;BME280;55996;49.546;7.400;2022-12-07T01:33:40;98848.31;;;5.12;100.00
68948;BME280;55996;49.546;7.400;2022-12-07T01:36:15;98847.41;;;5.12;100.00
68948;BME280;55996;49.546;7.400;2022-12-07T01:38:41;98818.25;;;4.91;100.00
68948;BME280;55996;49.546;7.400;2022-12-07T01:41:07;98855.97;;;5.23;100.00
68948;BME280;55996;49.546;7.400;2022-12-07T01:43:34;98846.44;;;5.27;100.00
68948;BME280;55996;49.546;7.400;2022-12-07T01:46:00;98849.09;;;5.22;100.00
68948;BME280;55996;49.546;7.400;2022-12-07T01:48:30;98843.84;;;5.25;100.00
68948;BME280;55996;49.546;7.400;2022-12-07T01:51:02;98836.94;;;5.24;100.00
68948;BME280;55996;49.546;7.400;2022-12-07T01:53:30;98832.56;;;5.29;100.00
68948;BME280;55996;49.546;7.400;2022-12-07T01:55:58;98831.75;;;5.24;100.00
68948;BME280;55996;49.546;7.400;2022-12-07T01:58:24;98834.28;;;5.32;100.00
68948;BME280;55996;49.546;7.400;2022-12-07T02:00:50;98825.81;;;5.14;100.00
68948;BME280;55996;49.546;7.400;2022-12-07T02:03:27;98831.91;;;5.07;100.00
68948;BME280;55996;49.546;7.400;2022-12-07T02:05:54;98838.09;;;4.91;100.00
68948;BME280;55996;49.546;7.400;2022-12-07T02:08:20;98838.88;;;5.04;100.00
68948;BME280;55996;49.546;7.400;2022-12-07T02:10:46;98832.78;;;5.05;100.00
68948;BME280;55996;49.546;7.400;2022-12-07T02:13:25;98837.84;;;5.22;100.00
68948;BME280;55996;49.546;7.400;2022-12-07T02:21:29;98819.69;;;5.25;100.00
68948;BME280;55996;49.546;7.400;2022-12-07T02:27:07;98817.03;;;5.29;100.00
68948;BME280;55996;49.546;7.400;2022-12-07T02:34:56;98815.59;;;4.99;100.00
68948;BME280;55996;49.546;7.400;2022-12-07T02:40:22;98809.34;;;5.20;100.00
68948;BME280;55996;49.546;7.400;2022-12-07T02:42:55;98796.56;;;5.00;100.00
68948;BME280;55996;49.546;7.400;2022-12-07T02:45:25;98801.66;;;5.12;100.00
68948;BME280;55996;49.546;7.400;2022-12-07T02:47:54;98806.00;;;5.07;100.00
68948;BME280;55996;49.546;7.400;2022-12-07T02:50:21;98812.75;;;5.25;100.00
68948;BME280;55996;49.546;7.400;2022-12-07T02:52:47;98810.97;;;5.33;100.00
68948;BME280;55996;49.546;7.400;2022-12-07T02:55:15;98777.34;;;5.23;100.00
68948;BME280;55996;49.546;7.400;2022-12-07T02:57:54;98804.03;;;5.32;100.00
68948;BME280;55996;49.546;7.400;2022-12-07T03:00:25;98795.44;;;5.26;100.00
68948;BME280;55996;49.546;7.400;2022-12-07T03:03:24;98790.16;;;5.37;100.00
68948;BME280;55996;49.546;7.400;2022-12-07T03:05:46;98800.59;;;5.30;100.00
68948;BME280;55996;49.546;7.400;2022-12-07T03:16:15;98803.09;;;5.41;100.00
68948;BME280;55996;49.546;7.400;2022-12-07T03:18:50;98797.13;;;5.33;100.00
68948;BME280;55996;49.546;7.400;2022-12-07T03:21:20;98782.41;;;5.35;100.00
68948;BME280;55996;49.546;7.400;2022-12-07T03:23:51;98796.16;;;5.43;100.00
68948;BME280;55996;49.546;7.400;2022-12-07T03:26:19;98790.03;;;5.49;100.00
68948;BME280;55996;49.546;7.400;2022-12-07T03:28:53;98796.09;;;5.49;100.00
68948;BME280;55996;49.546;7.400;2022-12-07T03:31:28;98797.78;;;5.54;100.00
68948;BME280;55996;49.546;7.400;2022-12-07T03:34:09;98799.50;;;5.55;100.00
68948;BME280;55996;49.546;7.400;2022-12-07T03:36:41;98796.88;;;5.56;100.00
68948;BME280;55996;49.546;7.400;2022-12-07T03:39:37;98806.28;;;5.68;100.00
68948;BME280;55996;49.546;7.400;2022-12-07T03:42:05;98796.75;;;5.69;100.00
68948;BME280;55996;49.546;7.400;2022-12-07T03:44:34;98794.13;;;5.70;100.00
68948;BME280;55996;49.546;7.400;2022-12-07T03:52:24;98788.00;;;5.77;100.00
68948;BME280;55996;49.546;7.400;2022-12-07T03:57:33;98785.31;;;5.84;100.00
68948;BME280;55996;49.546;7.400;2022-12-07T04:00:00;98783.66;;;5.79;100.00
68948;BME280;55996;49.546;7.400;2022-12-07T04:02:27;98792.25;;;5.85;100.00
68948;BME280;55996;49.546;7.400;2022-12-07T04:04:55;98790.44;;;5.90;100.00
68948;BME280;55996;49.546;7.400;2022-12-07T04:07:20;98791.34;;;5.87;100.00
68948;BME280;55996;49.546;7.400;2022-12-07T04:09:47;98797.38;;;5.88;100.00
68948;BME280;55996;49.546;7.400;2022-12-07T04:12:13;98788.69;;;5.92;100.00
68948;BME280;55996;49.546;7.400;2022-12-07T04:14:38;98792.16;;;5.91;100.00
68948;BME280;55996;49.546;7.400;2022-12-07T04:17:04;98789.53;;;5.92;100.00
68948;BME280;55996;49.546;7.400;2022-12-07T04:19:32;98785.22;;;5.93;100.00
68948;BME280;55996;49.546;7.400;2022-12-07T04:21:59;98782.63;;;5.91;100.00
68948;BME280;55996;49.546;7.400;2022-12-07T04:24:25;98796.41;;;5.98;100.00
68948;BME280;55996;49.546;7.400;2022-12-07T04:26:51;98781.72;;;5.95;100.00
68948;BME280;55996;49.546;7.400;2022-12-07T04:29:17;98788.63;;;5.95;100.00
68948;BME280;55996;49.546;7.400;2022-12-07T04:31:43;98782.69;;;5.88;100.00
68948;BME280;55996;49.546;7.400;2022-12-07T04:34:09;98789.47;;;6.00;100.00
68948;BME280;55996;49.546;7.400;2022-12-07T04:36:35;98775.72;;;5.92;100.00
68948;BME280;55996;49.546;7.400;2022-12-07T04:39:02;98788.63;;;5.98;100.00
68948;BME280;55996;49.546;7.400;2022-12-07T04:41:28;98783.41;;;6.01;100.00
68948;BME280;55996;49.546;7.400;2022-12-07T04:44:00;98782.56;;;6.01;100.00
68948;BME280;55996;49.546;7.400;2022-12-07T04:46:26;98786.84;;;6.03;100.00
68948;BME280;55996;49.546;7.400;2022-12-07T04:48:53;98779.19;;;5.91;100.00
68948;BME280;55996;49.546;7.400;2022-12-07T04:51:22;98778.34;;;5.89;100.00
68948;BME280;55996;49.546;7.400;2022-12-07T04:53:48;98785.28;;;5.85;100.00
68948;BME280;55996;49.546;7.400;2022-12-07T04:56:15;98780.97;;;5.87;100.00
68948;BME280;55996;49.546;7.400;2022-12-07T04:58:41;98778.41;;;5.86;100.00
68948;BME280;55996;49.546;7.400;2022-12-07T05:01:07;98774.91;;;5.88;100.00
68948;BME280;55996;49.546;7.400;2022-12-07T05:03:32;98780.06;;;5.90;100.00
68948;BME280;55996;49.546;7.400;2022-12-07T05:05:58;98776.53;;;5.94;100.00
68948;BME280;55996;49.546;7.400;2022-12-07T05:08:23;98778.31;;;5.90;100.00
68948;BME280;55996;49.546;7.400;2022-12-07T05:10:49;98776.63;;;5.89;100.00
68948;BME280;55996;49.546;7.400;2022-12-07T05:13:15;98771.34;;;5.95;100.00
68948;BME280;55996;49.546;7.400;2022-12-07T05:15:41;98772.31;;;5.87;100.00
68948;BME280;55996;49.546;7.400;2022-12-07T05:18:08;98775.72;;;5.92;100.00
68948;BME280;55996;49.546;7.400;2022-12-07T05:20:34;98777.47;;;5.90;100.00
68948;BME280;55996;49.546;7.400;2022-12-07T05:22:59;98777.38;;;5.96;100.00
68948;BME280;55996;49.546;7.400;2022-12-07T05:25:25;98773.03;;;5.98;100.00
68948;BME280;55996;49.546;7.400;2022-12-07T05:27:50;98776.50;;;6.00;100.00
68948;BME280;55996;49.546;7.400;2022-12-07T05:30:16;98775.66;;;5.95;100.00
68948;BME280;55996;49.546;7.400;2022-12-07T05:32:41;98773.06;;;5.95;100.00
68948;BME280;55996;49.546;7.400;2022-12-07T05:35:07;98761.03;;;5.91;100.00
68948;BME280;55996;49.546;7.400;2022-12-07T05:37:33;98769.69;;;5.90;100.00
68948;BME280;55996;49.546;7.400;2022-12-07T05:39:58;98767.03;;;5.94;100.00
68948;BME280;55996;49.546;7.400;2022-12-07T05:42:23;98767.03;;;5.94;100.00
68948;BME280;55996;49.546;7.400;2022-12-07T05:44:49;98763.56;;;5.95;100.00
68948;BME280;55996;49.546;7.400;2022-12-07T05:47:15;98767.00;;;6.01;100.00
68948;BME280;55996;49.546;7.400;2022-12-07T05:49:41;98772.06;;;6.08;100.00
68948;BME280;55996;49.546;7.400;2022-12-07T05:52:07;98767.75;;;6.07;100.00
68948;BME280;55996;49.546;7.400;2022-12-07T05:54:32;98762.63;;;6.04;100.00
68948;BME280;55996;49.546;7.400;2022-12-07T05:56:58;98761.75;;;6.04;100.00
68948;BME280;55996;49.546;7.400;2022-12-07T05:59:23;98765.88;;;6.17;100.00
68948;BME280;55996;49.546;7.400;2022-12-07T06:01:57;98766.75;;;6.19;100.00
68948;BME280;55996;49.546;7.400;2022-12-07T06:04:24;98777.03;;;6.24;100.00
68948;BME280;55996;49.546;7.400;2022-12-07T06:06:50;98774.34;;;6.30;100.00
68948;BME280;55996;49.546;7.400;2022-12-07T06:09:17;98764.06;;;6.24;100.00
68948;BME280;55996;49.546;7.400;2022-12-07T06:11:43;98761.47;;;6.25;100.00
68948;BME280;55996;49.546;7.400;2022-12-07T06:14:27;98775.19;;;6.32;100.00
68948;BME280;55996;49.546;7.400;2022-12-07T06:16:53;98766.47;;;6.38;100.00
68948;BME280;55996;49.546;7.400;2022-12-07T06:19:18;98761.47;;;6.22;100.00
68948;BME280;55996;49.546;7.400;2022-12-07T06:21:44;98777.69;;;6.41;100.00
68948;BME280;55996;49.546;7.400;2022-12-07T06:24:13;98771.63;;;6.39;100.00
68948;BME280;55996;49.546;7.400;2022-12-07T06:26:39;98770.78;;;6.39;100.00
68948;BME280;55996;49.546;7.400;2022-12-07T06:29:05;98760.47;;;6.34;100.00
68948;BME280;55996;49.546;7.400;2022-12-07T06:31:30;98755.34;;;6.29;100.00
68948;BME280;55996;49.546;7.400;2022-12-07T06:34:00;98767.28;;;6.40;100.00
68948;BME280;55996;49.546;7.400;2022-12-07T06:36:26;98769.03;;;6.39;100.00
68948;BME280;55996;49.546;7.400;2022-12-07T06:38:52;98766.56;;;6.30;100.00
68948;BME280;55996;49.546;7.400;2022-12-07T06:41:17;98769.97;;;6.34;100.00
68948;BME280;55996;49.546;7.400;2022-12-07T06:43:43;98769.97;;;6.35;100.00
68948;BME280;55996;49.546;7.400;2022-12-07T06:46:08;98768.38;;;6.26;100.00
68948;BME280;55996;49.546;7.400;2022-12-07T06:48:34;98776.13;;;6.28;100.00
68948;BME280;55996;49.546;7.400;2022-12-07T06:50:59;98759.75;;;6.24;100.00
68948;BME280;55996;49.546;7.400;2022-12-07T06:53:25;98778.69;;;6.29;100.00
68948;BME280;55996;49.546;7.400;2022-12-07T06:55:50;98755.44;;;6.22;100.00
68948;BME280;55996;49.546;7.400;2022-12-07T06:58:16;98775.19;;;6.32;100.00
68948;BME280;55996;49.546;7.400;2022-12-07T07:00:43;98779.53;;;6.30;100.00
68948;BME280;55996;49.546;7.400;2022-12-07T07:03:08;98784.66;;;6.38;100.00
68948;BME280;55996;49.546;7.400;2022-12-07T07:05:34;98779.53;;;6.30;100.00
68948;BME280;55996;49.546;7.400;2022-12-07T07:08:00;98781.25;;;6.31;100.00
68948;BME280;55996;49.546;7.400;2022-12-07T07:10:25;98773.47;;;6.33;100.00
68948;BME280;55996;49.546;7.400;2022-12-07T07:12:50;98784.72;;;6.30;100.00
68948;BME280;55996;49.546;7.400;2022-12-07T07:15:16;98789.84;;;6.36;100.00
68948;BME280;55996;49.546;7.400;2022-12-07T07:17:42;98766.66;;;6.24;100.00
68948;BME280;55996;49.546;7.400;2022-12-07T07:20:08;98764.13;;;6.18;100.00
68948;BME280;55996;49.546;7.400;2022-12-07T07:22:34;98780.47;;;6.26;100.00
68948;BME280;55996;49.546;7.400;2022-12-07T07:24:59;98782.22;;;6.24;100.00
68948;BME280;55996;49.546;7.400;2022-12-07T07:27:25;98762.38;;;6.23;100.00
68948;BME280;55996;49.546;7.400;2022-12-07T07:29:50;98781.34;;;6.25;100.00
68948;BME280;55996;49.546;7.400;2022-12-07T07:32:15;98777.78;;;6.32;100.00
68948;BME280;55996;49.546;7.400;2022-12-07T07:34:41;98783.81;;;6.36;100.00
68948;BME280;55996;49.546;7.400;2022-12-07T07:37:06;98785.63;;;6.30;100.00
68948;BME280;55996;49.546;7.400;2022-12-07T07:39:32;98783.78;;;6.39;100.00
68948;BME280;55996;49.546;7.400;2022-12-07T07:41:57;98783.81;;;6.36;100.00
68948;BME280;55996;49.546;7.400;2022-12-07T07:44:22;98789.06;;;6.33;100.00
68948;BME280;55996;49.546;7.400;2022-12-07T07:46:48;98791.59;;;6.36;100.00
68948;BME280;55996;49.546;7.400;2022-12-07T07:49:13;98798.53;;;6.35;100.00
68948;BME280;55996;49.546;7.400;2022-12-07T07:51:39;98800.47;;;6.19;100.00
68948;BME280;55996;49.546;7.400;2022-12-07T07:54:04;98800.19;;;6.39;100.00
68948;BME280;55996;49.546;7.400;2022-12-07T07:56:30;98800.22;;;6.36;100.00
68948;BME280;55996;49.546;7.400;2022-12-07T07:58:55;98801.13;;;6.35;100.00
68948;BME280;55996;49.546;7.400;2022-12-07T08:01:21;98807.91;;;6.45;100.00
68948;BME280;55996;49.546;7.400;2022-12-07T08:03:47;98808.75;;;6.48;100.00
68948;BME280;55996;49.546;7.400;2022-12-07T08:06:12;98803.41;;;6.57;100.00
68948;BME280;55996;49.546;7.400;2022-12-07T08:08:38;98804.38;;;6.50;100.00
68948;BME280;55996;49.546;7.400;2022-12-07T08:11:08;98810.41;;;6.52;100.00
68948;BME280;55996;49.546;7.400;2022-12-07T08:13:33;98815.63;;;6.49;100.00
68948;BME280;55996;49.546;7.400;2022-12-07T08:16:03;98816.50;;;6.49;100.00
68948;BME280;55996;49.546;7.400;2022-12-07T08:18:29;98814.03;;;6.41;100.00
68948;BME280;55996;49.546;7.400;2022-12-07T08:20:59;98818.06;;;6.61;100.00
68948;BME280;55996;49.546;7.400;2022-12-07T08:23:26;98813.72;;;6.61;100.00
68948;BME280;55996;49.546;7.400;2022-12-07T08:25:51;98820.81;;;6.52;100.00
68948;BME280;55996;49.546;7.400;2022-12-07T08:28:16;98821.66;;;6.54;100.00
68948;BME280;55996;49.546;7.400;2022-12-07T08:30:42;98816.41;;;6.55;100.00
68948;BME280;55996;49.546;7.400;2022-12-07T08:33:09;98815.53;;;6.56;100.00
68948;BME280;55996;49.546;7.400;2022-12-07T08:35:34;98830.00;;;6.73;100.00
68948;BME280;55996;49.546;7.400;2022-12-07T08:38:00;98826.53;;;6.74;100.00
68948;BME280;55996;49.546;7.400;2022-12-07T08:40:27;98824.66;;;6.84;100.00
68948;BME280;55996;49.546;7.400;2022-12-07T08:42:53;98821.19;;;6.83;100.00
68948;BME280;55996;49.546;7.400;2022-12-07T08:45:20;98813.28;;;6.91;100.00
68948;BME280;55996;49.546;7.400;2022-12-07T08:47:52;98817.41;;;7.03;100.00
68948;BME280;55996;49.546;7.400;2022-12-07T08:50:19;98812.06;;;7.12;100.00
68948;BME280;55996;49.546;7.400;2022-12-07T08:52:49;98810.94;;;7.27;100.00
68948;BME280;55996;49.546;7.400;2022-12-07T08:55:16;98811.88;;;7.23;100.00
68948;BME280;55996;49.546;7.400;2022-12-07T08:57:42;98808.13;;;7.39;100.00
68948;BME280;55996;49.546;7.400;2022-12-07T09:00:08;98812.25;;;7.50;100.00
68948;BME280;55996;49.546;7.400;2022-12-07T09:02:34;98793.09;;;7.54;100.00
68948;BME280;55996;49.546;7.400;2022-12-07T09:04:59;98803.28;;;7.66;100.00
68948;BME280;55996;49.546;7.400;2022-12-07T09:07:25;98799.03;;;7.62;100.00
68948;BME280;55996;49.546;7.400;2022-12-07T09:09:51;98808.63;;;7.58;100.00
68948;BME280;55996;49.546;7.400;2022-12-07T09:12:16;98807.09;;;7.47;100.00
68948;BME280;55996;49.546;7.400;2022-12-07T09:14:42;98801.13;;;7.41;100.00
68948;BME280;55996;49.546;7.400;2022-12-07T09:17:09;98807.22;;;7.42;100.00
68948;BME280;55996;49.546;7.400;2022-12-07T09:19:34;98812.63;;;7.28;100.00
68948;BME280;55996;49.546;7.400;2022-12-07T09:22:00;98814.31;;;7.32;100.00
68948;BME280;55996;49.546;7.400;2022-12-07T09:24:26;98820.38;;;7.33;100.00
68948;BME280;55996;49.546;7.400;2022-12-07T09:26:51;98820.25;;;7.39;100.00
68948;BME280;55996;49.546;7.400;2022-12-07T09:29:16;98824.47;;;7.46;100.00
68948;BME280;55996;49.546;7.400;2022-12-07T09:31:42;98815.59;;;7.58;100.00
68948;BME280;55996;49.546;7.400;2022-12-07T09:34:07;98817.44;;;7.51;100.00
68948;BME280;55996;49.546;7.400;2022-12-07T09:36:33;98816.41;;;7.62;100.00
68948;BME280;55996;49.546;7.400;2022-12-07T09:38:58;98820.78;;;7.58;100.00
68948;BME280;55996;49.546;7.400;2022-12-07T09:41:26;98820.50;;;7.73;100.00
68948;BME280;55996;49.546;7.400;2022-12-07T09:44:03;98816.16;;;7.74;100.00
68948;BME280;55996;49.546;7.400;2022-12-07T09:46:38;98807.34;;;7.80;100.00
68948;BME280;55996;49.546;7.400;2022-12-07T09:49:04;98800.44;;;7.80;100.00
68948;BME280;55996;49.546;7.400;2022-12-07T09:51:31;98805.75;;;7.74;100.00
68948;BME280;55996;49.546;7.400;2022-12-07T09:53:58;98804.06;;;7.70;100.00
68948;BME280;55996;49.546;7.400;2022-12-07T09:56:25;98801.31;;;7.78;100.00
68948;BME280;55996;49.546;7.400;2022-12-07T09:58:58;98804.66;;;7.84;100.00
68948;BME280;55996;49.546;7.400;2022-12-07T10:01:29;98799.38;;;7.89;100.00
68948;BME280;55996;49.546;7.400;2022-12-07T10:04:09;98791.31;;;8.01;100.00
68948;BME280;55996;49.546;7.400;2022-12-07T10:06:35;98780.84;;;8.03;100.00
68948;BME280;55996;49.546;7.400;2022-12-07T10:09:01;98784.19;;;8.10;100.00
68948;BME280;55996;49.546;7.400;2022-12-07T10:11:26;98780.66;;;8.12;100.00
68948;BME280;55996;49.546;7.400;2022-12-07T10:13:52;98780.91;;;8.01;100.00
68948;BME280;55996;49.546;7.400;2022-12-07T10:18:49;98773.84;;;8.05;100.00
68948;BME280;55996;49.546;7.400;2022-12-07T10:21:17;98780.81;;;8.04;100.00
68948;BME280;55996;49.546;7.400;2022-12-07T10:24:13;98773.97;;;7.99;100.00
68948;BME280;55996;49.546;7.400;2022-12-07T10:26:50;98776.44;;;8.06;100.00
68948;BME280;55996;49.546;7.400;2022-12-07T10:29:31;98769.44;;;8.08;100.00
68948;BME280;55996;49.546;7.400;2022-12-07T10:34:33;98764.50;;;7.96;100.00
68948;BME280;55996;49.546;7.400;2022-12-07T10:37:19;98764.69;;;7.87;100.00
68948;BME280;55996;49.546;7.400;2022-12-07T10:39:51;98768.16;;;7.87;100.00
68948;BME280;55996;49.546;7.400;2022-12-07T10:42:27;98762.19;;;7.82;100.00
68948;BME280;55996;49.546;7.400;2022-12-07T10:47:52;98747.09;;;7.98;100.00
68948;BME280;55996;49.546;7.400;2022-12-07T10:50:51;98753.00;;;8.06;100.00
68948;BME280;55996;49.546;7.400;2022-12-07T11:01:59;98740.25;;;8.33;100.00
68948;BME280;55996;49.546;7.400;2022-12-07T11:05:01;98736.44;;;8.48;100.00
68948;BME280;55996;49.546;7.400;2022-12-07T11:10:47;98728.63;;;8.50;100.00
68948;BME280;55996;49.546;7.400;2022-12-07T11:18:13;98720.66;;;8.54;100.00
68948;BME280;55996;49.546;7.400;2022-12-07T11:34:49;98696.53;;;8.82;100.00
68948;BME280;55996;49.546;7.400;2022-12-07T11:37:21;98692.84;;;8.91;100.00
68948;BME280;55996;49.546;7.400;2022-12-07T11:40:03;98699.06;;;8.85;100.00
68948;BME280;55996;49.546;7.400;2022-12-07T11:42:34;98687.69;;;8.88;100.00
68948;BME280;55996;49.546;7.400;2022-12-07T11:52:45;98697.28;;;8.87;100.00
68948;BME280;55996;49.546;7.400;2022-12-07T11:55:24;98689.41;;;8.89;100.00
68948;BME280;55996;49.546;7.400;2022-12-07T11:58:04;98688.84;;;8.78;100.00
68948;BME280;55996;49.546;7.400;2022-12-07T12:00:30;98681.88;;;8.78;100.00
68948;BME280;55996;49.546;7.400;2022-12-07T12:03:01;98685.44;;;8.74;100.00
68948;BME280;55996;49.546;7.400;2022-12-07T12:05:30;98682.72;;;8.79;100.00
68948;BME280;55996;49.546;7.400;2022-12-07T12:13:24;98682.63;;;8.82;100.00
68948;BME280;55996;49.546;7.400;2022-12-07T12:16:07;98674.66;;;8.88;100.00
68948;BME280;55996;49.546;7.400;2022-12-07T12:21:12;98663.94;;;8.99;100.00
68948;BME280;55996;49.546;7.400;2022-12-07T12:23:44;98662.66;;;8.82;100.00
68948;BME280;55996;49.546;7.400;2022-12-07T12:26:23;98664.47;;;8.79;100.00
68948;BME280;55996;49.546;7.400;2022-12-07T12:33:56;98673.25;;;8.76;100.00
68948;BME280;55996;49.546;7.400;2022-12-07T12:39:15;98664.31;;;8.85;100.00
68948;BME280;55996;49.546;7.400;2022-12-07T12:54:37;98641.66;;;8.54;100.00
68948;BME280;55996;49.546;7.400;2022-12-07T13:04:58;98647.31;;;8.35;100.00
68948;BME280;55996;49.546;7.400;2022-12-07T13:10:39;98650.88;;;8.31;100.00
68948;BME280;55996;49.546;7.400;2022-12-07T13:28:36;98648.13;;;8.00;100.00
68948;BME280;55996;49.546;7.400;2022-12-07T13:33:30;98640.97;;;8.10;100.00
68948;BME280;55996;49.546;7.400;2022-12-07T13:35:56;98633.34;;;8.02;100.00
68948;BME280;55996;49.546;7.400;2022-12-07T13:38:27;98646.25;;;8.06;100.00
68948;BME280;55996;49.546;7.400;2022-12-07T13:41:20;98638.44;;;8.06;100.00
68948;BME280;55996;49.546;7.400;2022-12-07T13:43:52;98635.84;;;8.06;100.00
68948;BME280;55996;49.546;7.400;2022-12-07T13:46:24;98627.22;;;8.04;100.00
68948;BME280;55996;49.546;7.400;2022-12-07T13:48:51;98624.84;;;7.95;100.00
68948;BME280;55996;49.546;7.400;2022-12-07T13:51:20;98628.03;;;8.06;100.00
68948;BME280;55996;49.546;7.400;2022-12-07T13:53:52;98634.13;;;8.05;100.00
68948;BME280;55996;49.546;7.400;2022-12-07T13:56:18;98627.31;;;8.00;100.00
68948;BME280;55996;49.546;7.400;2022-12-07T13:58:45;98624.75;;;7.98;100.00
68948;BME280;55996;49.546;7.400;2022-12-07T14:01:11;98620.47;;;7.96;100.00
68948;BME280;55996;49.546;7.400;2022-12-07T14:03:39;98615.31;;;7.94;100.00
68948;BME280;55996;49.546;7.400;2022-12-07T14:06:15;98616.25;;;7.91;100.00
68948;BME280;55996;49.546;7.400;2022-12-07T14:08:41;98613.00;;;7.82;100.00
68948;BME280;55996;49.546;7.400;2022-12-07T14:11:12;98607.09;;;7.73;100.00
68948;BME280;55996;49.546;7.400;2022-12-07T14:13:59;98607.38;;;7.61;100.00
68948;BME280;55996;49.546;7.400;2022-12-07T14:16:34;98606.81;;;7.48;100.00
68948;BME280;55996;49.546;7.400;2022-12-07T14:19:03;98613.25;;;7.30;100.00
68948;BME280;55996;49.546;7.400;2022-12-07T14:21:32;98612.28;;;7.34;100.00
68948;BME280;55996;49.546;7.400;2022-12-07T14:24:14;98620.28;;;7.25;100.00
68948;BME280;55996;49.546;7.400;2022-12-07T14:26:44;98614.47;;;7.14;100.00
68948;BME280;55996;49.546;7.400;2022-12-07T14:29:31;98622.47;;;7.03;100.00
68948;BME280;55996;49.546;7.400;2022-12-07T14:32:13;98614.91;;;6.90;100.00
68948;BME280;55996;49.546;7.400;2022-12-07T14:34:41;98618.50;;;6.85;100.00
68948;BME280;55996;49.546;7.400;2022-12-07T14:37:09;98627.28;;;6.77;100.00
68948;BME280;55996;49.546;7.400;2022-12-07T14:39:35;98608.53;;;6.61;100.00
68948;BME280;55996;49.546;7.400;2022-12-07T14:42:01;98626.63;;;6.66;100.00
68948;BME280;55996;49.546;7.400;2022-12-07T14:44:26;98620.53;;;6.67;100.00
68948;BME280;55996;49.546;7.400;2022-12-07T14:46:52;98623.28;;;6.59;100.00
68948;BME280;55996;49.546;7.400;2022-12-07T14:49:18;98610.56;;;6.44;100.00
68948;BME280;55996;49.546;7.400;2022-12-07T14:51:44;98621.88;;;6.41;100.00
68948;BME280;55996;49.546;7.400;2022-12-07T14:54:17;98622.53;;;6.53;100.00
68948;BME280;55996;49.546;7.400;2022-12-07T14:56:43;98619.38;;;6.34;100.00
68948;BME280;55996;49.546;7.400;2022-12-07T14:59:11;98619.59;;;6.23;100.00
68948;BME280;55996;49.546;7.400;2022-12-07T15:01:37;98607.41;;;6.26;100.00
68948;BME280;55996;49.546;7.400;2022-12-07T15:04:03;98625.47;;;6.31;100.00
68948;BME280;55996;49.546;7.400;2022-12-07T15:06:29;98622.31;;;6.13;100.00
68948;BME280;55996;49.546;7.400;2022-12-07T15:08:54;98619.47;;;6.27;100.00
68948;BME280;55996;49.546;7.400;2022-12-07T15:11:20;98618.63;;;6.27;100.00
68948;BME280;55996;49.546;7.400;2022-12-07T15:13:45;98624.06;;;6.13;100.00
68948;BME280;55996;49.546;7.400;2022-12-07T15:16:29;98611.03;;;6.16;100.00
68948;BME280;55996;49.546;7.400;2022-12-07T15:18:55;98605.75;;;6.21;100.00
68948;BME280;55996;49.546;7.400;2022-12-07T15:21:20;98599.63;;;6.26;100.00
68948;BME280;55996;49.546;7.400;2022-12-07T15:23:46;98614.88;;;6.45;100.00
68948;BME280;55996;49.546;7.400;2022-12-07T15:26:11;98604.47;;;6.46;100.00